Time;durP1;ratioP1;P1;durP2;ratioP2;P2;SDS_P1;SDS_P2;PMS_P1;PMS_P2;Temp;Humidity;BMP_temperature;BMP_pressure;BME280_temperature;BME280_humidity;BME280_pressure;Samples;Min_cycle;Max_cycle;Signal;HPM_P1;HPM_P2
2021/09/30 00:02:00;;;;;;;1.67;1.20;;;;;;;;;;5093896;28;20181;-90
2021/09/30 00:04:28;;;;;;;1.33;1.33;;;;;;;;;;5093392;28;20177;-88
2021/09/30 00:06:55;;;;;;;2.15;1.20;;;;;;;;;;5093873;28;20188;-87
2021/09/30 00:09:23;;;;;;;1.13;1.08;;;;;;;;;;5097289;28;20234;-86
2021/09/30 00:11:54;;;;;;;1.00;1.00;;;;;;;;;;5122601;28;20267;-87
2021/09/30 00:14:26;;;;;;;0.90;0.90;;;;;;;;;;5120815;28;20187;-86
2021/09/30 00:17:15;;;;;;;1.20;1.10;;;;;;;;;;5119295;28;20196;-87
2021/09/30 00:33:46;;;;;;;1.30;1.20;;;;;;;;;;5112655;28;20182;-87
2021/09/30 00:39:36;;;;;;;1.30;1.20;;;;;;;;;;5112798;28;20223;-88
2021/09/30 00:41:53;;;;;;;2.45;1.33;;;;;;;;;;5112548;28;20270;-88
2021/09/30 00:47:18;;;;;;;1.52;1.42;;;;;;;;;;5112620;28;20191;-88
2021/09/30 00:50:02;;;;;;;1.20;1.10;;;;;;;;;;5100717;28;20235;-88
2021/09/30 00:52:34;;;;;;;1.45;1.25;;;;;;;;;;5092162;28;20188;-88
2021/09/30 00:55:19;;;;;;;1.30;1.20;;;;;;;;;;5092459;28;20280;-87
2021/09/30 02:19:41;;;;;;;1.10;1.10;;;;;;;;;;5094409;28;20226;-87
2021/09/30 02:25:19;;;;;;;1.73;1.63;;;;;;;;;;5073393;28;20662;-87
2021/09/30 02:58:33;;;;;;;1.52;1.38;;;;;;;;;;5094416;28;20688;-88
2021/09/30 03:01:05;;;;;;;1.98;1.88;;;;;;;;;;5113899;28;20678;-87
2021/09/30 03:03:35;;;;;;;1.45;1.33;;;;;;;;;;5114197;28;20188;-88
2021/09/30 03:06:05;;;;;;;2.03;1.50;;;;;;;;;;5113757;28;20183;-87
2021/09/30 03:08:36;;;;;;;1.50;1.40;;;;;;;;;;5114042;28;20220;-88
2021/09/30 03:11:04;;;;;;;1.30;1.20;;;;;;;;;;5113932;28;20204;-87
2021/09/30 03:13:33;;;;;;;1.60;1.50;;;;;;;;;;5113723;28;20180;-87
2021/09/30 03:16:11;;;;;;;1.70;1.60;;;;;;;;;;5113542;28;20568;-87
2021/09/30 03:18:53;;;;;;;3.05;1.92;;;;;;;;;;5093128;28;20236;-87
2021/09/30 03:24:09;;;;;;;2.75;1.35;;;;;;;;;;5093376;28;20650;-88
2021/09/30 03:26:38;;;;;;;1.77;1.67;;;;;;;;;;5096864;28;20184;-88
2021/09/30 03:29:07;;;;;;;2.50;1.73;;;;;;;;;;5113583;28;20725;-86
2021/09/30 03:31:35;;;;;;;1.83;1.73;;;;;;;;;;5114037;28;20207;-88
2021/09/30 03:34:03;;;;;;;1.60;1.50;;;;;;;;;;5113286;28;20183;-88
2021/09/30 03:36:33;;;;;;;1.80;1.70;;;;;;;;;;5113387;28;20180;-87
2021/09/30 03:39:00;;;;;;;2.03;1.60;;;;;;;;;;5113412;28;20220;-88
2021/09/30 03:41:28;;;;;;;1.48;1.38;;;;;;;;;;5113445;28;20184;-88
2021/09/30 03:43:55;;;;;;;1.60;1.50;;;;;;;;;;5112437;28;20188;-87
2021/09/30 03:46:23;;;;;;;1.90;1.67;;;;;;;;;;5113430;28;20186;-88
2021/09/30 03:48:55;;;;;;;3.25;1.92;;;;;;;;;;5113342;28;20222;-87
2021/09/30 03:51:31;;;;;;;4.72;1.80;;;;;;;;;;5111717;28;20227;-88
2021/09/30 03:54:12;;;;;;;1.80;1.70;;;;;;;;;;5113065;28;20207;-87
2021/09/30 03:56:50;;;;;;;1.60;1.50;;;;;;;;;;5113327;28;20204;-87
2021/09/30 03:59:20;;;;;;;2.42;1.77;;;;;;;;;;5113176;28;20219;-86
2021/09/30 04:01:56;;;;;;;2.00;1.90;;;;;;;;;;5113393;28;20184;-88
2021/09/30 04:04:26;;;;;;;2.88;1.65;;;;;;;;;;5092760;28;20184;-89
2021/09/30 04:06:57;;;;;;;1.58;1.48;;;;;;;;;;5092785;28;20196;-89
2021/09/30 04:09:29;;;;;;;2.15;1.77;;;;;;;;;;5092337;28;20724;-87
2021/09/30 04:12:00;;;;;;;3.90;2.40;;;;;;;;;;5092860;28;20211;-88
2021/09/30 04:14:27;;;;;;;2.00;1.90;;;;;;;;;;5092772;28;20188;-88
2021/09/30 04:16:56;;;;;;;3.60;2.55;;;;;;;;;;5092854;28;20637;-86
2021/09/30 04:19:25;;;;;;;2.03;1.92;;;;;;;;;;5092787;28;20581;-88
2021/09/30 04:21:55;;;;;;;1.90;1.80;;;;;;;;;;5093258;28;20193;-86
2021/09/30 04:24:23;;;;;;;1.75;1.65;;;;;;;;;;5097928;28;20188;-88
2021/09/30 04:26:55;;;;;;;2.83;1.75;;;;;;;;;;5112677;28;20191;-88
2021/09/30 04:29:25;;;;;;;1.80;1.70;;;;;;;;;;5113155;28;20689;-88
2021/09/30 04:31:53;;;;;;;1.80;1.70;;;;;;;;;;5112787;28;20669;-87
2021/09/30 04:34:20;;;;;;;4.80;2.17;;;;;;;;;;5112406;28;20199;-87
2021/09/30 04:36:48;;;;;;;1.90;1.80;;;;;;;;;;5113031;28;20195;-88
2021/09/30 04:39:17;;;;;;;2.67;2.47;;;;;;;;;;5112819;28;20266;-88
2021/09/30 04:41:46;;;;;;;1.80;1.70;;;;;;;;;;5112752;28;20280;-87
2021/09/30 04:44:16;;;;;;;2.42;2.17;;;;;;;;;;5112832;28;20210;-89
2021/09/30 04:46:44;;;;;;;2.22;2.03;;;;;;;;;;5112740;28;20538;-88
2021/09/30 04:49:11;;;;;;;2.15;1.92;;;;;;;;;;5112531;28;20215;-88
2021/09/30 04:51:39;;;;;;;3.80;2.50;;;;;;;;;;5112893;28;20211;-87
2021/09/30 04:54:06;;;;;;;1.85;1.75;;;;;;;;;;5112956;28;20873;-87
2021/09/30 04:56:34;;;;;;;2.20;2.00;;;;;;;;;;5117880;28;20187;-87
2021/09/30 04:59:03;;;;;;;2.00;1.90;;;;;;;;;;5116859;28;20592;-87
2021/09/30 05:01:32;;;;;;;2.50;2.30;;;;;;;;;;5117045;28;20645;-87
2021/09/30 05:03:59;;;;;;;2.20;2.00;;;;;;;;;;5118229;28;20658;-85
2021/09/30 05:06:27;;;;;;;2.22;2.13;;;;;;;;;;5120566;28;20191;-85
2021/09/30 05:08:58;;;;;;;2.33;2.13;;;;;;;;;;5119363;28;20219;-88
2021/09/30 05:11:31;;;;;;;2.42;2.33;;;;;;;;;;5117471;28;20180;-87
2021/09/30 05:13:59;;;;;;;3.20;2.65;;;;;;;;;;5117375;28;20184;-86
2021/09/30 05:16:28;;;;;;;3.03;1.98;;;;;;;;;;5116604;28;20175;-87
2021/09/30 05:18:57;;;;;;;1.85;1.75;;;;;;;;;;5116380;28;20212;-85
2021/09/30 05:21:25;;;;;;;4.07;3.67;;;;;;;;;;5116554;28;20180;-86
2021/09/30 05:23:54;;;;;;;2.22;1.98;;;;;;;;;;5116692;28;20195;-88
2021/09/30 05:26:21;;;;;;;3.20;2.90;;;;;;;;;;5116472;28;20564;-86
2021/09/30 05:28:50;;;;;;;1.98;1.88;;;;;;;;;;5116274;28;20270;-87
2021/09/30 05:31:18;;;;;;;2.13;2.03;;;;;;;;;;5116044;28;20201;-86
2021/09/30 05:33:47;;;;;;;2.20;2.05;;;;;;;;;;5116130;28;20416;-87
2021/09/30 05:36:18;;;;;;;2.17;2.08;;;;;;;;;;5116225;27;20676;-87
2021/09/30 05:38:46;;;;;;;3.47;2.15;;;;;;;;;;5115995;28;20330;-87
2021/09/30 05:41:14;;;;;;;2.05;1.85;;;;;;;;;;5115939;28;20192;-88
2021/09/30 05:43:48;;;;;;;3.72;2.80;;;;;;;;;;5115884;28;20195;-88
2021/09/30 05:46:18;;;;;;;2.65;2.45;;;;;;;;;;5116632;27;20184;-86
2021/09/30 05:48:45;;;;;;;3.17;2.30;;;;;;;;;;5115971;28;20216;-85
2021/09/30 05:51:13;;;;;;;2.30;2.10;;;;;;;;;;5115972;28;20709;-86
2021/09/30 05:53:42;;;;;;;1.80;1.60;;;;;;;;;;5116875;28;20204;-85
2021/09/30 05:56:09;;;;;;;3.67;2.30;;;;;;;;;;5121942;28;20579;-85
2021/09/30 05:58:36;;;;;;;2.33;2.22;;;;;;;;;;5125614;28;20219;-84
2021/09/30 06:01:11;;;;;;;2.80;2.38;;;;;;;;;;5121480;28;20631;-87
2021/09/30 06:10:07;;;;;;;3.70;2.70;;;;;;;;;;5115982;28;20246;-90
2021/09/30 06:12:31;;;;;;;2.42;2.22;;;;;;;;;;5116117;28;20310;-87
2021/09/30 06:15:00;;;;;;;4.60;2.40;;;;;;;;;;5117836;28;20207;-85
2021/09/30 06:17:30;;;;;;;3.38;2.70;;;;;;;;;;5114116;28;20222;-85
2021/09/30 06:19:57;;;;;;;2.85;2.65;;;;;;;;;;5104181;28;20220;-86
2021/09/30 06:22:25;;;;;;;2.58;2.38;;;;;;;;;;5119928;28;20192;-87
2021/09/30 06:24:54;;;;;;;3.28;2.28;;;;;;;;;;5126860;28;20189;-85
2021/09/30 06:27:21;;;;;;;2.10;1.90;;;;;;;;;;5119898;28;20196;-85
2021/09/30 06:29:50;;;;;;;2.20;2.00;;;;;;;;;;5115031;28;20590;-86
2021/09/30 06:32:17;;;;;;;2.88;2.20;;;;;;;;;;5114475;28;20212;-86
2021/09/30 06:34:45;;;;;;;2.33;2.05;;;;;;;;;;5114792;28;20172;-86
2021/09/30 06:37:12;;;;;;;3.95;2.83;;;;;;;;;;5094114;28;20197;-86
2021/09/30 06:39:42;;;;;;;4.72;2.65;;;;;;;;;;5094035;28;20701;-87
2021/09/30 06:42:12;;;;;;;1.90;1.80;;;;;;;;;;5094540;28;20815;-88
2021/09/30 06:44:40;;;;;;;1.63;1.50;;;;;;;;;;5094842;28;20185;-87
2021/09/30 06:47:08;;;;;;;5.43;2.25;;;;;;;;;;5094237;28;20200;-85
2021/09/30 06:53:09;;;;;;;1.90;1.80;;;;;;;;;;5083210;28;20220;-90
2021/09/30 06:55:39;;;;;;;3.70;2.10;;;;;;;;;;5099700;28;20588;-85
2021/09/30 06:58:10;;;;;;;3.55;2.10;;;;;;;;;;5115235;28;20254;-87
2021/09/30 07:00:39;;;;;;;2.30;2.13;;;;;;;;;;5115493;28;20188;-86
2021/09/30 07:03:07;;;;;;;2.97;1.83;;;;;;;;;;5114700;28;20191;-86
2021/09/30 07:06:32;;;;;;;3.83;2.40;;;;;;;;;;5106479;28;20615;-86
2021/09/30 07:09:01;;;;;;;2.35;1.83;;;;;;;;;;5076258;28;20224;-88
2021/09/30 07:11:29;;;;;;;2.28;2.03;;;;;;;;;;5094092;28;20188;-87
2021/09/30 07:13:59;;;;;;;5.32;3.80;;;;;;;;;;5096383;28;20207;-87
2021/09/30 07:16:27;;;;;;;1.75;1.60;;;;;;;;;;5108419;28;20577;-85
2021/09/30 07:18:55;;;;;;;5.13;2.28;;;;;;;;;;5114655;28;20986;-87
2021/09/30 07:21:23;;;;;;;4.65;2.08;;;;;;;;;;5096352;28;20264;-85
2021/09/30 07:23:55;;;;;;;3.22;1.52;;;;;;;;;;5095869;28;20635;-84
2021/09/30 07:26:32;;;;;;;2.05;1.77;;;;;;;;;;5107342;28;20599;-85
2021/09/30 07:29:01;;;;;;;4.00;2.30;;;;;;;;;;5095518;28;20238;-86
2021/09/30 07:31:32;;;;;;;2.33;1.50;;;;;;;;;;5096419;28;20199;-84
2021/09/30 07:34:01;;;;;;;4.72;1.90;;;;;;;;;;5106999;28;20282;-86
2021/09/30 07:36:35;;;;;;;1.73;1.55;;;;;;;;;;5104472;28;20184;-86
2021/09/30 07:39:04;;;;;;;2.72;1.58;;;;;;;;;;5108048;28;20220;-85
2021/09/30 07:41:31;;;;;;;1.55;1.45;;;;;;;;;;5115755;28;20686;-84
2021/09/30 07:44:03;;;;;;;3.70;1.83;;;;;;;;;;5115777;28;20208;-86
2021/09/30 07:46:43;;;;;;;1.75;1.50;;;;;;;;;;5102802;28;20924;-84
2021/09/30 07:49:13;;;;;;;1.67;1.45;;;;;;;;;;5093822;28;20223;-85
2021/09/30 07:51:42;;;;;;;1.77;1.63;;;;;;;;;;5094226;28;20281;-84
2021/09/30 07:54:14;;;;;;;3.20;2.03;;;;;;;;;;5094222;28;20682;-88
2021/09/30 07:56:42;;;;;;;2.38;1.70;;;;;;;;;;5107199;28;20204;-85
2021/09/30 07:59:17;;;;;;;3.00;1.75;;;;;;;;;;5093917;28;20220;-86
2021/09/30 08:01:46;;;;;;;2.60;1.65;;;;;;;;;;5094345;28;20627;-85
2021/09/30 08:04:20;;;;;;;1.58;1.48;;;;;;;;;;5094484;28;20193;-85
2021/09/30 08:06:55;;;;;;;1.88;1.38;;;;;;;;;;5095796;28;20192;-86
2021/09/30 08:09:24;;;;;;;3.35;2.05;;;;;;;;;;5094890;28;20295;-84
2021/09/30 08:11:58;;;;;;;1.50;1.40;;;;;;;;;;5095613;28;20636;-85
2021/09/30 08:14:33;;;;;;;2.45;1.60;;;;;;;;;;5094988;28;20663;-84
2021/09/30 08:17:04;;;;;;;1.73;1.40;;;;;;;;;;5110986;28;20192;-84
2021/09/30 08:19:33;;;;;;;2.17;1.90;;;;;;;;;;5116181;28;20605;-85
2021/09/30 08:22:04;;;;;;;1.95;1.73;;;;;;;;;;5114398;28;20211;-87
2021/09/30 08:24:33;;;;;;;1.83;1.50;;;;;;;;;;5113531;28;20184;-87
2021/09/30 08:27:09;;;;;;;2.42;1.70;;;;;;;;;;5096697;28;20200;-89
2021/09/30 08:29:39;;;;;;;1.20;1.20;;;;;;;;;;5110724;28;20231;-86
2021/09/30 08:32:08;;;;;;;2.25;1.58;;;;;;;;;;5117725;28;20248;-86
2021/09/30 08:34:38;;;;;;;4.45;2.10;;;;;;;;;;5117710;28;20227;-88
2021/09/30 08:37:07;;;;;;;1.85;1.50;;;;;;;;;;5117895;28;20200;-88
2021/09/30 08:39:47;;;;;;;1.42;1.05;;;;;;;;;;5117677;28;20227;-89
2021/09/30 08:42:26;;;;;;;2.08;1.45;;;;;;;;;;5117766;28;20183;-88
2021/09/30 08:44:58;;;;;;;1.20;1.10;;;;;;;;;;5117384;28;20195;-88
2021/09/30 08:47:39;;;;;;;2.25;1.45;;;;;;;;;;5096872;28;20192;-87
2021/09/30 08:50:08;;;;;;;2.05;1.20;;;;;;;;;;5096427;28;20251;-87
2021/09/30 08:52:43;;;;;;;1.77;1.65;;;;;;;;;;5096798;28;20568;-87
2021/09/30 08:55:12;;;;;;;3.00;1.50;;;;;;;;;;5096528;28;20310;-89
2021/09/30 08:57:46;;;;;;;3.13;1.52;;;;;;;;;;5096645;28;20180;-89
2021/09/30 09:00:30;;;;;;;2.05;1.45;;;;;;;;;;5097145;28;20196;-87
2021/09/30 09:03:03;;;;;;;1.35;1.10;;;;;;;;;;5096739;28;20192;-88
2021/09/30 09:05:32;;;;;;;1.80;1.30;;;;;;;;;;5097973;28;20189;-90
2021/09/30 09:08:02;;;;;;;2.10;1.35;;;;;;;;;;5096555;28;20268;-87
2021/09/30 09:10:32;;;;;;;1.42;1.30;;;;;;;;;;5097481;28;20191;-89
2021/09/30 09:13:07;;;;;;;1.38;1.20;;;;;;;;;;5096837;28;20188;-90
2021/09/30 09:15:45;;;;;;;1.45;1.13;;;;;;;;;;5096181;28;20573;-89
2021/09/30 09:18:19;;;;;;;2.78;1.40;;;;;;;;;;5096602;28;20589;-86
2021/09/30 09:20:59;;;;;;;3.88;1.50;;;;;;;;;;5096829;28;20180;-85
2021/09/30 09:23:26;;;;;;;1.33;1.05;;;;;;;;;;5096472;28;20185;-86
2021/09/30 09:26:16;;;;;;;2.65;1.13;;;;;;;;;;5098065;28;20183;-85
2021/09/30 09:29:03;;;;;;;1.00;0.90;;;;;;;;;;5098670;28;20220;-85
2021/09/30 09:31:36;;;;;;;1.60;1.25;;;;;;;;;;5098748;28;20661;-85
2021/09/30 09:34:21;;;;;;;1.85;1.63;;;;;;;;;;5097586;28;20223;-86
2021/09/30 09:36:50;;;;;;;1.98;1.00;;;;;;;;;;5096668;28;20234;-85
2021/09/30 09:39:20;;;;;;;3.60;1.40;;;;;;;;;;5100402;28;20232;-86
2021/09/30 09:41:47;;;;;;;1.10;1.00;;;;;;;;;;5096675;28;20262;-86
2021/09/30 09:44:19;;;;;;;1.67;1.23;;;;;;;;;;5102329;28;20196;-86
2021/09/30 09:46:48;;;;;;;1.27;1.20;;;;;;;;;;5117425;28;20211;-86
2021/09/30 09:49:19;;;;;;;2.75;1.98;;;;;;;;;;5117283;28;20231;-86
2021/09/30 09:51:49;;;;;;;1.17;1.00;;;;;;;;;;5118096;28;20236;-85
2021/09/30 09:54:19;;;;;;;1.77;1.10;;;;;;;;;;5118570;28;20215;-86
2021/09/30 09:56:48;;;;;;;1.48;1.00;;;;;;;;;;5110071;27;20658;-86
2021/09/30 09:59:41;;;;;;;1.15;0.98;;;;;;;;;;5097156;28;20220;-86
2021/09/30 10:02:10;;;;;;;3.53;1.77;;;;;;;;;;5097046;28;20207;-86
2021/09/30 10:04:41;;;;;;;2.38;1.70;;;;;;;;;;5093448;28;20204;-87
2021/09/30 10:07:09;;;;;;;1.95;1.00;;;;;;;;;;5095121;28;20201;-89
2021/09/30 10:09:36;;;;;;;1.33;0.90;;;;;;;;;;5094435;28;20219;-89
2021/09/30 10:12:06;;;;;;;2.97;1.45;;;;;;;;;;5094032;28;20196;-88
2021/09/30 10:14:37;;;;;;;1.45;0.90;;;;;;;;;;5094927;28;20578;-88
2021/09/30 10:17:04;;;;;;;1.52;1.10;;;;;;;;;;5094962;28;20199;-88
2021/09/30 10:19:34;;;;;;;1.40;1.30;;;;;;;;;;5094830;28;20224;-88
2021/09/30 10:22:03;;;;;;;1.40;1.13;;;;;;;;;;5094941;28;20184;-88
2021/09/30 10:24:30;;;;;;;1.88;1.05;;;;;;;;;;5094110;28;20580;-87
2021/09/30 10:27:00;;;;;;;0.85;0.80;;;;;;;;;;5094900;28;20557;-89
2021/09/30 10:29:43;;;;;;;1.50;1.10;;;;;;;;;;5095567;28;20218;-89
2021/09/30 10:32:11;;;;;;;2.30;1.20;;;;;;;;;;5094453;28;20203;-89
2021/09/30 10:34:43;;;;;;;1.42;0.90;;;;;;;;;;5094282;28;20307;-89
2021/09/30 10:37:20;;;;;;;2.17;0.90;;;;;;;;;;5094039;28;20549;-89
2021/09/30 10:40:02;;;;;;;1.23;1.08;;;;;;;;;;5094101;28;20226;-87
2021/09/30 10:42:44;;;;;;;1.48;0.80;;;;;;;;;;5093877;28;20219;-89
2021/09/30 10:45:13;;;;;;;1.20;0.75;;;;;;;;;;5094793;28;20200;-88
2021/09/30 10:47:41;;;;;;;2.55;1.75;;;;;;;;;;5113521;28;20202;-90
2021/09/30 10:50:10;;;;;;;1.48;1.00;;;;;;;;;;5113327;28;20227;-89
2021/09/30 10:52:51;;;;;;;0.77;0.77;;;;;;;;;;5112645;28;20664;-87
2021/09/30 10:55:30;;;;;;;0.80;0.80;;;;;;;;;;5113992;28;20243;-88
2021/09/30 10:58:00;;;;;;;1.13;1.08;;;;;;;;;;5114601;28;20202;-88
2021/09/30 11:00:51;;;;;;;0.90;0.80;;;;;;;;;;5114019;28;20527;-89
2021/09/30 11:03:26;;;;;;;1.35;0.95;;;;;;;;;;5113952;28;20211;-87
2021/09/30 11:06:17;;;;;;;1.85;0.70;;;;;;;;;;5113753;28;20195;-89
2021/09/30 11:08:48;;;;;;;1.02;0.90;;;;;;;;;;5113664;28;20215;-86
2021/09/30 11:11:28;;;;;;;1.20;0.90;;;;;;;;;;5114090;28;20275;-88
2021/09/30 11:14:30;;;;;;;1.05;0.82;;;;;;;;;;5114250;28;20256;-87
2021/09/30 11:16:59;;;;;;;1.88;1.50;;;;;;;;;;5114685;28;20204;-87
2021/09/30 11:19:33;;;;;;;0.88;0.82;;;;;;;;;;5113943;28;20222;-85
2021/09/30 11:22:05;;;;;;;1.42;1.08;;;;;;;;;;5113696;28;20198;-85
2021/09/30 11:24:39;;;;;;;1.52;0.85;;;;;;;;;;5110397;28;20199;-87
2021/09/30 11:27:31;;;;;;;4.65;1.88;;;;;;;;;;5102406;28;20654;-86
2021/09/30 11:30:24;;;;;;;0.80;0.80;;;;;;;;;;5101023;28;20702;-87
2021/09/30 11:32:59;;;;;;;3.92;0.90;;;;;;;;;;5109018;28;20214;-87
2021/09/30 11:35:28;;;;;;;1.80;1.27;;;;;;;;;;5102480;28;20227;-87
2021/09/30 11:37:56;;;;;;;1.65;0.82;;;;;;;;;;5100803;28;20191;-86
2021/09/30 11:40:24;;;;;;;0.73;0.73;;;;;;;;;;5101562;28;20185;-86
2021/09/30 11:42:56;;;;;;;1.10;0.88;;;;;;;;;;5100849;28;20203;-87
2021/09/30 11:45:28;;;;;;;1.00;0.98;;;;;;;;;;5102037;28;20176;-86
2021/09/30 11:48:07;;;;;;;1.17;0.93;;;;;;;;;;5100837;28;20685;-87
2021/09/30 11:50:38;;;;;;;0.93;0.70;;;;;;;;;;5100320;28;20219;-87
2021/09/30 11:53:10;;;;;;;1.48;0.90;;;;;;;;;;5094540;28;20203;-86
2021/09/30 11:55:42;;;;;;;0.93;0.85;;;;;;;;;;5101303;28;20216;-86
2021/09/30 11:58:14;;;;;;;0.82;0.80;;;;;;;;;;5101264;28;20219;-86
2021/09/30 12:00:44;;;;;;;0.85;0.73;;;;;;;;;;5100524;28;20192;-86
2021/09/30 12:03:12;;;;;;;1.85;0.82;;;;;;;;;;5104794;28;20248;-86
2021/09/30 12:05:41;;;;;;;1.30;0.93;;;;;;;;;;5102879;28;20266;-86
2021/09/30 12:08:10;;;;;;;1.50;1.17;;;;;;;;;;5113919;28;20855;-87
2021/09/30 12:10:39;;;;;;;3.25;1.52;;;;;;;;;;5113764;28;20188;-86
2021/09/30 12:13:19;;;;;;;1.70;1.55;;;;;;;;;;5113773;28;20186;-87
2021/09/30 12:15:47;;;;;;;1.95;0.90;;;;;;;;;;5113384;28;20215;-86
2021/09/30 12:18:19;;;;;;;1.52;0.77;;;;;;;;;;5113642;28;20309;-85
2021/09/30 12:20:56;;;;;;;1.75;0.93;;;;;;;;;;5110870;28;20191;-86
2021/09/30 12:23:26;;;;;;;1.00;0.80;;;;;;;;;;5107741;28;20610;-86
2021/09/30 12:25:54;;;;;;;1.50;0.85;;;;;;;;;;5100347;28;20184;-87
2021/09/30 12:28:21;;;;;;;1.75;1.10;;;;;;;;;;5093192;28;20216;-86
2021/09/30 12:30:49;;;;;;;1.90;0.63;;;;;;;;;;5094349;28;20658;-86
2021/09/30 12:33:17;;;;;;;0.90;0.70;;;;;;;;;;5106475;28;20188;-86
2021/09/30 12:35:45;;;;;;;1.80;0.75;;;;;;;;;;5114860;28;20190;-85
2021/09/30 12:38:16;;;;;;;1.00;0.90;;;;;;;;;;5116563;28;20603;-85
2021/09/30 12:40:47;;;;;;;0.65;0.57;;;;;;;;;;5114307;28;20248;-87
2021/09/30 12:43:17;;;;;;;0.98;0.80;;;;;;;;;;5114184;28;20180;-86
2021/09/30 12:45:47;;;;;;;1.00;0.82;;;;;;;;;;5112494;28;20578;-87
2021/09/30 12:48:17;;;;;;;0.65;0.60;;;;;;;;;;5113574;28;20239;-86
2021/09/30 12:50:49;;;;;;;0.98;0.70;;;;;;;;;;5112567;28;20228;-86
2021/09/30 12:53:20;;;;;;;1.35;0.60;;;;;;;;;;5112828;28;20190;-86
2021/09/30 12:55:53;;;;;;;1.38;0.77;;;;;;;;;;5111340;28;20185;-86
2021/09/30 12:58:32;;;;;;;1.13;0.70;;;;;;;;;;5109590;28;20294;-86
2021/09/30 13:01:01;;;;;;;1.33;0.75;;;;;;;;;;5112994;28;20190;-87
2021/09/30 13:03:29;;;;;;;2.25;1.23;;;;;;;;;;5113307;28;20180;-87
2021/09/30 13:05:58;;;;;;;0.88;0.80;;;;;;;;;;5113200;28;20200;-85
2021/09/30 13:08:40;;;;;;;0.88;0.82;;;;;;;;;;5113630;28;20215;-85
2021/09/30 13:11:31;;;;;;;0.98;0.80;;;;;;;;;;5112848;28;20187;-85
2021/09/30 13:14:23;;;;;;;2.53;1.20;;;;;;;;;;5112924;28;20184;-86
2021/09/30 13:16:54;;;;;;;0.60;0.60;;;;;;;;;;5115831;28;20210;-86
2021/09/30 13:19:41;;;;;;;2.05;1.08;;;;;;;;;;5116689;28;20220;-85
2021/09/30 13:22:09;;;;;;;0.70;0.70;;;;;;;;;;5116287;28;20191;-87
2021/09/30 13:24:38;;;;;;;1.73;1.08;;;;;;;;;;5116744;27;20191;-86
2021/09/30 13:27:10;;;;;;;1.15;0.70;;;;;;;;;;5116112;28;20556;-85
2021/09/30 13:29:37;;;;;;;1.55;0.77;;;;;;;;;;5115348;28;20216;-86
2021/09/30 13:32:07;;;;;;;1.13;0.90;;;;;;;;;;5116582;28;20211;-86
2021/09/30 13:34:34;;;;;;;0.70;0.70;;;;;;;;;;5121593;28;20188;-85
2021/09/30 13:37:02;;;;;;;1.65;1.20;;;;;;;;;;5124301;28;20211;-85
2021/09/30 13:39:30;;;;;;;0.82;0.70;;;;;;;;;;5123952;28;20226;-85
2021/09/30 13:41:58;;;;;;;0.50;0.50;;;;;;;;;;5124038;28;20263;-86
2021/09/30 13:44:27;;;;;;;0.40;0.40;;;;;;;;;;5117833;28;20716;-85
2021/09/30 13:46:55;;;;;;;0.75;0.60;;;;;;;;;;5117825;28;20199;-85
2021/09/30 13:49:22;;;;;;;0.70;0.70;;;;;;;;;;5117674;28;20224;-85
2021/09/30 13:51:50;;;;;;;0.57;0.57;;;;;;;;;;5117954;27;20180;-86
2021/09/30 13:54:18;;;;;;;0.52;0.52;;;;;;;;;;5118356;28;20203;-86
2021/09/30 13:56:45;;;;;;;0.90;0.60;;;;;;;;;;5117994;28;20200;-86
2021/09/30 13:59:13;;;;;;;1.40;0.93;;;;;;;;;;5121269;28;20230;-85
2021/09/30 14:01:42;;;;;;;0.63;0.60;;;;;;;;;;5124867;27;20192;-85
2021/09/30 14:04:09;;;;;;;0.70;0.50;;;;;;;;;;5116573;28;20185;-85
2021/09/30 14:06:37;;;;;;;1.10;1.00;;;;;;;;;;5103374;28;20203;-86
2021/09/30 14:09:04;;;;;;;1.40;1.00;;;;;;;;;;5103198;28;20718;-85
2021/09/30 14:11:33;;;;;;;0.80;0.80;;;;;;;;;;5096254;28;20539;-87
2021/09/30 14:14:00;;;;;;;2.42;1.10;;;;;;;;;;5096514;28;20200;-86
2021/09/30 14:16:28;;;;;;;0.90;0.80;;;;;;;;;;5096663;28;20189;-86
2021/09/30 14:18:57;;;;;;;1.85;0.80;;;;;;;;;;5096083;28;20220;-84
2021/09/30 14:21:24;;;;;;;1.52;1.00;;;;;;;;;;5094922;28;20180;-86
2021/09/30 14:23:52;;;;;;;1.13;1.13;;;;;;;;;;5095207;28;20203;-86
2021/09/30 14:26:19;;;;;;;1.27;1.23;;;;;;;;;;5095147;28;20184;-85
2021/09/30 14:28:47;;;;;;;0.65;0.65;;;;;;;;;;5103665;28;20219;-86
2021/09/30 14:31:16;;;;;;;0.50;0.50;;;;;;;;;;5109294;28;20665;-86
2021/09/30 14:33:44;;;;;;;0.98;0.57;;;;;;;;;;5094994;28;20215;-86
2021/09/30 14:36:13;;;;;;;0.80;0.55;;;;;;;;;;5095246;28;20665;-85
2021/09/30 14:38:41;;;;;;;0.60;0.60;;;;;;;;;;5095356;28;20705;-85
2021/09/30 14:41:09;;;;;;;0.50;0.50;;;;;;;;;;5095368;28;20215;-86
2021/09/30 14:43:37;;;;;;;0.90;0.77;;;;;;;;;;5094923;28;20207;-86
2021/09/30 15:02:05;;;;;;;0.60;0.60;;;;;;;;;;5095253;28;20662;-86
2021/09/30 15:04:32;;;;;;;0.70;0.55;;;;;;;;;;5094499;28;20188;-85
2021/09/30 15:07:00;;;;;;;0.57;0.57;;;;;;;;;;5107398;28;20195;-86
2021/09/30 15:09:27;;;;;;;0.55;0.55;;;;;;;;;;5110130;28;20212;-85
2021/09/30 15:11:55;;;;;;;0.40;0.40;;;;;;;;;;5110627;28;20200;-86
2021/09/30 15:14:22;;;;;;;1.10;0.60;;;;;;;;;;5115260;28;20192;-86
2021/09/30 15:16:54;;;;;;;0.50;0.50;;;;;;;;;;5115551;28;20638;-86
2021/09/30 15:19:25;;;;;;;0.77;0.77;;;;;;;;;;5115688;28;20269;-86
2021/09/30 15:21:53;;;;;;;1.55;1.45;;;;;;;;;;5115259;28;20606;-86
2021/09/30 15:24:21;;;;;;;1.63;1.10;;;;;;;;;;5105978;28;20551;-86
2021/09/30 15:26:49;;;;;;;1.25;0.70;;;;;;;;;;5094480;28;20634;-85
2021/09/30 15:29:19;;;;;;;0.50;0.50;;;;;;;;;;5094801;28;20261;-86
2021/09/30 15:31:47;;;;;;;0.65;0.65;;;;;;;;;;5094151;28;20188;-85
2021/09/30 15:34:15;;;;;;;0.50;0.50;;;;;;;;;;5094359;28;20631;-85
2021/09/30 15:36:44;;;;;;;0.60;0.60;;;;;;;;;;5093786;28;20289;-86
2021/09/30 15:39:12;;;;;;;0.50;0.50;;;;;;;;;;5092934;28;20224;-86
2021/09/30 15:41:39;;;;;;;0.80;0.80;;;;;;;;;;5093260;28;20211;-85
2021/09/30 15:44:07;;;;;;;0.68;0.68;;;;;;;;;;5093348;28;20208;-86
2021/09/30 15:46:35;;;;;;;0.63;0.63;;;;;;;;;;5093705;28;20184;-86
2021/09/30 15:49:02;;;;;;;0.60;0.60;;;;;;;;;;5093790;28;20223;-86
2021/09/30 15:51:30;;;;;;;0.50;0.50;;;;;;;;;;5094681;28;20223;-85
2021/09/30 15:53:59;;;;;;;0.60;0.60;;;;;;;;;;5094088;28;20236;-86
2021/09/30 15:56:26;;;;;;;0.73;0.70;;;;;;;;;;5094887;28;20814;-85
2021/09/30 15:58:54;;;;;;;0.77;0.77;;;;;;;;;;5094759;28;20224;-85
2021/09/30 16:01:23;;;;;;;1.02;1.00;;;;;;;;;;5095169;28;20623;-85
2021/09/30 16:03:53;;;;;;;2.40;1.60;;;;;;;;;;5094377;28;20578;-86
2021/09/30 16:06:20;;;;;;;2.40;2.20;;;;;;;;;;5094432;28;20185;-86
2021/09/30 16:08:48;;;;;;;2.03;1.75;;;;;;;;;;5094183;28;20765;-85
2021/09/30 16:11:17;;;;;;;1.70;1.60;;;;;;;;;;5094252;28;20188;-85
2021/09/30 16:13:45;;;;;;;1.63;1.52;;;;;;;;;;5094593;28;20191;-85
2021/09/30 16:16:13;;;;;;;2.10;1.35;;;;;;;;;;5094276;28;20200;-85
2021/09/30 16:18:41;;;;;;;1.13;1.10;;;;;;;;;;5093947;28;20315;-85
2021/09/30 16:21:11;;;;;;;1.13;1.00;;;;;;;;;;5094295;28;20639;-86
2021/09/30 16:23:39;;;;;;;1.55;1.00;;;;;;;;;;5097001;28;20192;-86
2021/09/30 16:26:08;;;;;;;0.80;0.80;;;;;;;;;;5097084;28;20187;-86
2021/09/30 16:28:38;;;;;;;0.95;0.95;;;;;;;;;;5107081;28;20216;-85
2021/09/30 16:31:05;;;;;;;0.90;0.90;;;;;;;;;;5103966;28;20196;-85
2021/09/30 16:33:33;;;;;;;0.70;0.70;;;;;;;;;;5098852;28;20196;-85
2021/09/30 16:36:00;;;;;;;0.35;0.35;;;;;;;;;;5094058;28;20208;-85
2021/09/30 16:38:28;;;;;;;1.40;1.27;;;;;;;;;;5101373;28;20280;-86
2021/09/30 16:40:56;;;;;;;0.70;0.70;;;;;;;;;;5114617;28;20203;-86
2021/09/30 16:43:25;;;;;;;0.30;0.30;;;;;;;;;;5107197;28;20203;-86
2021/09/30 16:45:54;;;;;;;4.43;0.52;;;;;;;;;;5114581;28;20705;-86
2021/09/30 16:48:21;;;;;;;0.57;0.57;;;;;;;;;;5107347;28;20693;-86
2021/09/30 16:50:52;;;;;;;0.85;0.85;;;;;;;;;;5095954;28;20181;-86
2021/09/30 16:53:21;;;;;;;0.50;0.50;;;;;;;;;;5099521;28;20312;-85
2021/09/30 16:55:49;;;;;;;1.05;1.00;;;;;;;;;;5099761;28;20200;-86
2021/09/30 16:58:17;;;;;;;0.70;0.70;;;;;;;;;;5099213;28;20220;-84
2021/09/30 17:00:44;;;;;;;0.57;0.57;;;;;;;;;;5098912;28;20197;-86
2021/09/30 17:03:13;;;;;;;0.52;0.52;;;;;;;;;;5098988;28;20651;-85
2021/09/30 17:05:42;;;;;;;0.57;0.47;;;;;;;;;;5098652;28;20187;-85
2021/09/30 17:08:09;;;;;;;1.05;0.60;;;;;;;;;;5099700;28;20212;-85
2021/09/30 17:10:37;;;;;;;0.75;0.70;;;;;;;;;;5118650;28;20204;-86
2021/09/30 17:13:05;;;;;;;0.73;0.60;;;;;;;;;;5118618;28;20176;-85
2021/09/30 17:15:35;;;;;;;0.47;0.47;;;;;;;;;;5118965;28;20552;-86
2021/09/30 17:18:04;;;;;;;0.60;0.60;;;;;;;;;;5119461;28;20176;-85
2021/09/30 17:20:34;;;;;;;1.05;0.70;;;;;;;;;;5117937;28;20576;-84
2021/09/30 17:23:02;;;;;;;0.50;0.50;;;;;;;;;;5117281;28;20196;-85
2021/09/30 17:25:29;;;;;;;1.00;0.90;;;;;;;;;;5109431;28;20210;-85
2021/09/30 17:27:58;;;;;;;0.55;0.55;;;;;;;;;;5118530;28;20674;-85
2021/09/30 17:30:25;;;;;;;0.65;0.65;;;;;;;;;;5101726;28;20195;-85
2021/09/30 17:32:53;;;;;;;0.75;0.75;;;;;;;;;;5106069;28;20267;-84
2021/09/30 17:35:23;;;;;;;0.70;0.70;;;;;;;;;;5118893;28;20209;-84
2021/09/30 17:37:54;;;;;;;0.93;0.93;;;;;;;;;;5100766;28;20200;-85
2021/09/30 17:40:21;;;;;;;1.00;1.00;;;;;;;;;;5098608;28;20212;-84
2021/09/30 17:42:49;;;;;;;1.75;1.63;;;;;;;;;;5100882;28;20546;-85
2021/09/30 17:45:17;;;;;;;1.33;1.25;;;;;;;;;;5115000;28;20577;-84
2021/09/30 17:47:47;;;;;;;2.40;1.08;;;;;;;;;;5108474;28;20196;-84
2021/09/30 17:50:15;;;;;;;1.65;1.25;;;;;;;;;;5102090;28;20210;-84